Airfield :
LOGIN :

Register | Disclaimer

   EN    FR    IT 

 










Legend :    VFR   Marginal VFR   IFR   Intensive IFR   Very Intensive IFR
Visi :
Ceiling :
>= 8 km
>= 3000ft
5 to 8 km
1000 to 3000 ft
1500m to 5 km
500 to 1000 ft
800 to 1500m
200 to 500 ft
< 800m
< 200 ft
Symbols :   Thunderstorms  Fog  Heavy snow  Heavy precipitations  Wind > 20 kt
SIGMETs :     Misc.  Thunderstorms  Icing  Turbulence  Mountain Waves  Volcanic Ashes






- Airport Elevation : 187 ft


ETNW - Wunstorf AB

CURRENT METAR :
  • 281120Z 13006KT 9999 SCT050 BKN080 06/03 Q1011 BLU BLU TEMPO WHT

EXPIRED METARs :
  • 281020Z 13006KT 9999 -RA FEW050 BKN070 06/03 Q1012 BLU BLU TEMPO WHT
  • 280920Z 13007KT 9999 BKN060 BKN080 06/02 Q1012 BLU BLU TEMPO WHT

TAF TAF ETNW
Valid from the 28 at 12:00 until the 29 at 12:00 UTC


281102Z 2812/2912 15010KT 9999 NSW BKN080
TEMPO 2812/2818 15015KT 5000 -RA BKN020
BECMG 2818/2820 12005KT 8000 -RA BKN010
TEMPO 2818/2912 10010KT 3000 RA BKN005 BY ETGL



MET'MAP, your aeronautical weather chart ! - Copyright ORBIFLY December 2007 - Disclaimer

ORBIFLY MET'MAP TEAM :

Programming & Development : Alexandra Zaïnal
Original concept : Baudouin d'Aumeries
Technical & hardware support : Manuel Goepfert
Assistance : Marc-Olivier Méhu




SOURCES & CREDITS :

   NOAA